sensor_id;sensor_type;location;lat;lon;timestamp;temperature;humidity
36548;DHT22;22551;52.206;4.856;2024-02-23T00:01:16;6.10;99.90
36548;DHT22;22551;52.206;4.856;2024-02-23T00:06:30;6.10;99.90
36548;DHT22;22551;52.206;4.856;2024-02-23T00:11:32;6.20;99.90
36548;DHT22;22551;52.206;4.856;2024-02-23T00:16:40;6.10;99.90
36548;DHT22;22551;52.206;4.856;2024-02-23T00:21:46;6.10;99.90
36548;DHT22;22551;52.206;4.856;2024-02-23T00:26:53;6.20;99.90
36548;DHT22;22551;52.206;4.856;2024-02-23T00:31:55;6.20;99.90
36548;DHT22;22551;52.206;4.856;2024-02-23T00:36:58;6.20;99.90
36548;DHT22;22551;52.206;4.856;2024-02-23T00:42:00;6.20;99.90
36548;DHT22;22551;52.206;4.856;2024-02-23T00:47:03;6.20;99.90
36548;DHT22;22551;52.206;4.856;2024-02-23T00:52:07;6.20;99.90
36548;DHT22;22551;52.206;4.856;2024-02-23T00:57:10;6.30;99.90
36548;DHT22;22551;52.206;4.856;2024-02-23T01:02:12;6.20;99.90
36548;DHT22;22551;52.206;4.856;2024-02-23T01:07:16;6.20;99.90
36548;DHT22;22551;52.206;4.856;2024-02-23T01:12:18;6.20;99.90
36548;DHT22;22551;52.206;4.856;2024-02-23T01:17:22;6.20;99.90
36548;DHT22;22551;52.206;4.856;2024-02-23T01:22:25;6.10;99.90
36548;DHT22;22551;52.206;4.856;2024-02-23T01:27:29;6.10;99.90
36548;DHT22;22551;52.206;4.856;2024-02-23T01:32:32;6.10;99.90
36548;DHT22;22551;52.206;4.856;2024-02-23T01:37:38;6.10;99.90
36548;DHT22;22551;52.206;4.856;2024-02-23T01:42:40;6.10;99.90
36548;DHT22;22551;52.206;4.856;2024-02-23T01:47:43;6.10;99.90
36548;DHT22;22551;52.206;4.856;2024-02-23T01:52:46;6.10;99.90
36548;DHT22;22551;52.206;4.856;2024-02-23T01:57:52;6.10;99.90
36548;DHT22;22551;52.206;4.856;2024-02-23T02:02:55;6.10;99.90
36548;DHT22;22551;52.206;4.856;2024-02-23T02:08:00;6.00;99.90
36548;DHT22;22551;52.206;4.856;2024-02-23T02:13:02;5.70;99.90
36548;DHT22;22551;52.206;4.856;2024-02-23T02:18:07;5.70;99.90
36548;DHT22;22551;52.206;4.856;2024-02-23T02:23:11;5.60;99.90
36548;DHT22;22551;52.206;4.856;2024-02-23T02:28:16;5.60;99.90
36548;DHT22;22551;52.206;4.856;2024-02-23T02:33:19;5.50;99.90
36548;DHT22;22551;52.206;4.856;2024-02-23T02:38:22;5.40;99.90
36548;DHT22;22551;52.206;4.856;2024-02-23T02:43:25;5.30;99.90
36548;DHT22;22551;52.206;4.856;2024-02-23T02:48:27;5.30;99.90
36548;DHT22;22551;52.206;4.856;2024-02-23T02:53:30;5.20;99.90
36548;DHT22;22551;52.206;4.856;2024-02-23T02:58:32;5.10;99.90
36548;DHT22;22551;52.206;4.856;2024-02-23T03:03:35;5.10;99.90
36548;DHT22;22551;52.206;4.856;2024-02-23T03:08:44;5.10;99.90
36548;DHT22;22551;52.206;4.856;2024-02-23T03:13:46;5.20;99.90
36548;DHT22;22551;52.206;4.856;2024-02-23T03:18:51;5.30;99.90
36548;DHT22;22551;52.206;4.856;2024-02-23T03:23:56;5.40;99.90
36548;DHT22;22551;52.206;4.856;2024-02-23T03:28:58;5.40;99.90
36548;DHT22;22551;52.206;4.856;2024-02-23T03:34:00;5.40;99.90
36548;DHT22;22551;52.206;4.856;2024-02-23T03:39:04;5.40;99.90
36548;DHT22;22551;52.206;4.856;2024-02-23T03:44:08;5.40;99.90
36548;DHT22;22551;52.206;4.856;2024-02-23T03:49:10;5.30;99.90
36548;DHT22;22551;52.206;4.856;2024-02-23T03:54:15;5.30;99.90
36548;DHT22;22551;52.206;4.856;2024-02-23T03:59:17;5.10;99.90
36548;DHT22;22551;52.206;4.856;2024-02-23T04:04:19;5.00;99.90
36548;DHT22;22551;52.206;4.856;2024-02-23T04:09:22;5.00;99.90
36548;DHT22;22551;52.206;4.856;2024-02-23T04:14:25;5.00;99.90
36548;DHT22;22551;52.206;4.856;2024-02-23T04:19:27;5.00;99.90
36548;DHT22;22551;52.206;4.856;2024-02-23T04:24:31;4.90;99.90
36548;DHT22;22551;52.206;4.856;2024-02-23T04:29:33;4.90;99.90
36548;DHT22;22551;52.206;4.856;2024-02-23T04:34:36;4.90;99.90
36548;DHT22;22551;52.206;4.856;2024-02-23T04:39:39;4.80;99.90
36548;DHT22;22551;52.206;4.856;2024-02-23T04:44:42;4.80;99.90
36548;DHT22;22551;52.206;4.856;2024-02-23T04:49:44;4.80;99.90
36548;DHT22;22551;52.206;4.856;2024-02-23T04:54:48;4.80;99.90
36548;DHT22;22551;52.206;4.856;2024-02-23T04:59:50;4.80;99.90
36548;DHT22;22551;52.206;4.856;2024-02-23T05:04:52;4.90;99.90
36548;DHT22;22551;52.206;4.856;2024-02-23T05:09:55;4.90;99.90
36548;DHT22;22551;52.206;4.856;2024-02-23T05:14:57;5.00;99.90
36548;DHT22;22551;52.206;4.856;2024-02-23T05:19:59;5.00;99.90
36548;DHT22;22551;52.206;4.856;2024-02-23T05:25:09;5.00;99.90
36548;DHT22;22551;52.206;4.856;2024-02-23T05:30:13;5.10;99.90
36548;DHT22;22551;52.206;4.856;2024-02-23T05:35:15;5.00;99.90
36548;DHT22;22551;52.206;4.856;2024-02-23T05:40:18;5.10;99.90
36548;DHT22;22551;52.206;4.856;2024-02-23T05:45:21;5.10;99.90
36548;DHT22;22551;52.206;4.856;2024-02-23T05:50:23;5.20;99.90
36548;DHT22;22551;52.206;4.856;2024-02-23T05:55:26;5.30;99.90
36548;DHT22;22551;52.206;4.856;2024-02-23T06:00:28;5.30;99.90
36548;DHT22;22551;52.206;4.856;2024-02-23T06:05:34;5.30;99.90
36548;DHT22;22551;52.206;4.856;2024-02-23T06:10:37;5.40;99.90
36548;DHT22;22551;52.206;4.856;2024-02-23T06:15:39;5.40;99.90
36548;DHT22;22551;52.206;4.856;2024-02-23T06:20:49;5.50;99.90
36548;DHT22;22551;52.206;4.856;2024-02-23T06:25:53;5.50;99.90
36548;DHT22;22551;52.206;4.856;2024-02-23T06:30:55;5.50;99.90
36548;DHT22;22551;52.206;4.856;2024-02-23T06:35:57;5.50;99.90
36548;DHT22;22551;52.206;4.856;2024-02-23T06:41:01;5.50;99.90
36548;DHT22;22551;52.206;4.856;2024-02-23T06:46:07;5.50;99.90
36548;DHT22;22551;52.206;4.856;2024-02-23T06:51:10;5.50;99.90
36548;DHT22;22551;52.206;4.856;2024-02-23T06:56:14;5.40;99.90
36548;DHT22;22551;52.206;4.856;2024-02-23T07:01:19;5.50;99.90
36548;DHT22;22551;52.206;4.856;2024-02-23T07:06:23;5.50;99.90
36548;DHT22;22551;52.206;4.856;2024-02-23T07:11:27;5.50;99.90
36548;DHT22;22551;52.206;4.856;2024-02-23T07:16:29;5.50;99.90
36548;DHT22;22551;52.206;4.856;2024-02-23T07:21:34;5.50;99.90
36548;DHT22;22551;52.206;4.856;2024-02-23T07:26:37;5.60;99.90
36548;DHT22;22551;52.206;4.856;2024-02-23T07:31:39;5.60;99.90
36548;DHT22;22551;52.206;4.856;2024-02-23T07:36:42;5.60;99.90
36548;DHT22;22551;52.206;4.856;2024-02-23T07:41:46;5.60;99.90
36548;DHT22;22551;52.206;4.856;2024-02-23T07:46:48;5.60;99.90
36548;DHT22;22551;52.206;4.856;2024-02-23T07:51:50;5.60;99.90
36548;DHT22;22551;52.206;4.856;2024-02-23T07:56:54;5.60;99.90
36548;DHT22;22551;52.206;4.856;2024-02-23T08:01:58;5.60;99.90
36548;DHT22;22551;52.206;4.856;2024-02-23T08:59:45;5.50;99.90
36548;DHT22;22551;52.206;4.856;2024-02-23T09:04:47;5.60;99.90
36548;DHT22;22551;52.206;4.856;2024-02-23T09:09:49;5.60;99.90
36548;DHT22;22551;52.206;4.856;2024-02-23T09:14:53;5.50;99.90
36548;DHT22;22551;52.206;4.856;2024-02-23T09:19:55;5.50;99.90
36548;DHT22;22551;52.206;4.856;2024-02-23T09:24:57;5.50;99.90
36548;DHT22;22551;52.206;4.856;2024-02-23T09:30:00;5.70;99.90
36548;DHT22;22551;52.206;4.856;2024-02-23T09:35:03;6.00;99.90
36548;DHT22;22551;52.206;4.856;2024-02-23T09:40:09;6.10;99.90
36548;DHT22;22551;52.206;4.856;2024-02-23T09:45:16;6.20;99.90
36548;DHT22;22551;52.206;4.856;2024-02-23T09:50:21;6.20;99.90
36548;DHT22;22551;52.206;4.856;2024-02-23T09:55:24;6.20;99.90
36548;DHT22;22551;52.206;4.856;2024-02-23T10:00:28;6.40;99.90
36548;DHT22;22551;52.206;4.856;2024-02-23T10:05:31;6.60;99.90
36548;DHT22;22551;52.206;4.856;2024-02-23T10:10:34;6.80;99.90
36548;DHT22;22551;52.206;4.856;2024-02-23T10:15:38;7.10;99.90
36548;DHT22;22551;52.206;4.856;2024-02-23T10:20:40;7.20;99.90
36548;DHT22;22551;52.206;4.856;2024-02-23T10:25:42;7.30;99.90
36548;DHT22;22551;52.206;4.856;2024-02-23T10:30:48;7.40;99.90
36548;DHT22;22551;52.206;4.856;2024-02-23T10:35:56;7.40;99.90
36548;DHT22;22551;52.206;4.856;2024-02-23T10:40:59;7.50;99.90
36548;DHT22;22551;52.206;4.856;2024-02-23T10:46:04;7.80;99.90
36548;DHT22;22551;52.206;4.856;2024-02-23T10:51:10;7.90;99.90
36548;DHT22;22551;52.206;4.856;2024-02-23T10:56:15;7.70;99.90
36548;DHT22;22551;52.206;4.856;2024-02-23T11:01:20;7.80;99.90
36548;DHT22;22551;52.206;4.856;2024-02-23T11:06:27;7.70;99.90
36548;DHT22;22551;52.206;4.856;2024-02-23T11:11:32;7.80;99.90
36548;DHT22;22551;52.206;4.856;2024-02-23T11:16:39;7.90;99.90
36548;DHT22;22551;52.206;4.856;2024-02-23T11:21:42;7.80;99.90
36548;DHT22;22551;52.206;4.856;2024-02-23T11:26:48;8.00;99.90
36548;DHT22;22551;52.206;4.856;2024-02-23T11:31:51;8.20;99.90
36548;DHT22;22551;52.206;4.856;2024-02-23T11:36:57;8.30;99.90
36548;DHT22;22551;52.206;4.856;2024-02-23T11:42:09;8.20;99.90
36548;DHT22;22551;52.206;4.856;2024-02-23T11:47:12;8.30;99.90
36548;DHT22;22551;52.206;4.856;2024-02-23T11:52:15;8.40;99.90
36548;DHT22;22551;52.206;4.856;2024-02-23T11:57:18;8.30;99.90
36548;DHT22;22551;52.206;4.856;2024-02-23T12:02:23;8.40;99.90
36548;DHT22;22551;52.206;4.856;2024-02-23T12:07:26;8.40;99.90
36548;DHT22;22551;52.206;4.856;2024-02-23T12:12:29;8.40;99.90
36548;DHT22;22551;52.206;4.856;2024-02-23T12:17:35;8.30;99.90
36548;DHT22;22551;52.206;4.856;2024-02-23T12:22:38;8.40;99.90
36548;DHT22;22551;52.206;4.856;2024-02-23T12:27:40;8.70;99.90
36548;DHT22;22551;52.206;4.856;2024-02-23T12:32:45;8.80;99.90
36548;DHT22;22551;52.206;4.856;2024-02-23T12:37:48;9.00;99.90
36548;DHT22;22551;52.206;4.856;2024-02-23T12:42:52;9.30;99.90
36548;DHT22;22551;52.206;4.856;2024-02-23T12:47:56;9.40;99.90
36548;DHT22;22551;52.206;4.856;2024-02-23T12:52:58;9.20;99.90
36548;DHT22;22551;52.206;4.856;2024-02-23T12:58:01;9.30;99.90
36548;DHT22;22551;52.206;4.856;2024-02-23T13:03:05;9.00;99.90
36548;DHT22;22551;52.206;4.856;2024-02-23T13:08:07;9.00;99.90
36548;DHT22;22551;52.206;4.856;2024-02-23T13:13:09;9.10;99.90
36548;DHT22;22551;52.206;4.856;2024-02-23T13:18:13;9.20;99.90
36548;DHT22;22551;52.206;4.856;2024-02-23T13:23:15;9.20;99.90
36548;DHT22;22551;52.206;4.856;2024-02-23T13:28:17;9.30;99.90
36548;DHT22;22551;52.206;4.856;2024-02-23T13:33:21;9.20;99.90
36548;DHT22;22551;52.206;4.856;2024-02-23T13:38:24;9.10;99.90
36548;DHT22;22551;52.206;4.856;2024-02-23T13:43:26;9.00;99.90
36548;DHT22;22551;52.206;4.856;2024-02-23T13:48:30;9.00;99.90
36548;DHT22;22551;52.206;4.856;2024-02-23T13:53:32;8.90;99.90
36548;DHT22;22551;52.206;4.856;2024-02-23T13:58:36;8.90;99.90
36548;DHT22;22551;52.206;4.856;2024-02-23T14:03:40;9.00;99.90
36548;DHT22;22551;52.206;4.856;2024-02-23T14:08:42;9.00;99.90
36548;DHT22;22551;52.206;4.856;2024-02-23T14:13:47;8.90;99.90
36548;DHT22;22551;52.206;4.856;2024-02-23T14:18:51;9.00;99.90
36548;DHT22;22551;52.206;4.856;2024-02-23T14:23:53;9.00;99.90
36548;DHT22;22551;52.206;4.856;2024-02-23T14:28:57;9.10;99.90
36548;DHT22;22551;52.206;4.856;2024-02-23T14:34:00;9.00;99.90
36548;DHT22;22551;52.206;4.856;2024-02-23T14:39:02;8.90;99.90
36548;DHT22;22551;52.206;4.856;2024-02-23T14:44:05;8.80;99.90
36548;DHT22;22551;52.206;4.856;2024-02-23T14:49:08;8.70;99.90
36548;DHT22;22551;52.206;4.856;2024-02-23T14:54:11;8.60;99.90
36548;DHT22;22551;52.206;4.856;2024-02-23T14:59:14;8.60;99.90
36548;DHT22;22551;52.206;4.856;2024-02-23T15:04:17;8.60;99.90
36548;DHT22;22551;52.206;4.856;2024-02-23T15:09:19;8.60;99.90
36548;DHT22;22551;52.206;4.856;2024-02-23T15:14:22;8.60;99.90
36548;DHT22;22551;52.206;4.856;2024-02-23T15:19:25;8.60;99.90
36548;DHT22;22551;52.206;4.856;2024-02-23T15:24:27;8.50;99.90
36548;DHT22;22551;52.206;4.856;2024-02-23T15:29:30;8.40;99.90
36548;DHT22;22551;52.206;4.856;2024-02-23T15:34:33;8.40;99.90
36548;DHT22;22551;52.206;4.856;2024-02-23T15:39:35;8.40;99.90
36548;DHT22;22551;52.206;4.856;2024-02-23T15:44:37;8.50;99.90
36548;DHT22;22551;52.206;4.856;2024-02-23T15:49:41;8.40;99.90
36548;DHT22;22551;52.206;4.856;2024-02-23T15:54:43;8.30;99.90
36548;DHT22;22551;52.206;4.856;2024-02-23T15:59:45;8.30;99.90
36548;DHT22;22551;52.206;4.856;2024-02-23T16:04:49;8.20;99.90
36548;DHT22;22551;52.206;4.856;2024-02-23T16:09:51;8.20;99.90
36548;DHT22;22551;52.206;4.856;2024-02-23T16:14:53;8.20;99.90
36548;DHT22;22551;52.206;4.856;2024-02-23T16:19:58;8.20;99.90
36548;DHT22;22551;52.206;4.856;2024-02-23T16:25:00;8.20;99.90
36548;DHT22;22551;52.206;4.856;2024-02-23T16:30:04;8.10;99.90
36548;DHT22;22551;52.206;4.856;2024-02-23T16:35:09;7.90;99.90
36548;DHT22;22551;52.206;4.856;2024-02-23T16:40:19;7.80;99.90
36548;DHT22;22551;52.206;4.856;2024-02-23T16:45:23;7.70;99.90
36548;DHT22;22551;52.206;4.856;2024-02-23T16:50:27;7.60;99.90
36548;DHT22;22551;52.206;4.856;2024-02-23T16:55:29;7.50;99.90
36548;DHT22;22551;52.206;4.856;2024-02-23T17:00:31;7.40;99.90
36548;DHT22;22551;52.206;4.856;2024-02-23T17:05:35;7.40;99.90
36548;DHT22;22551;52.206;4.856;2024-02-23T17:10:37;7.30;99.90
36548;DHT22;22551;52.206;4.856;2024-02-23T17:15:39;7.30;99.90
36548;DHT22;22551;52.206;4.856;2024-02-23T17:20:43;7.20;99.90
36548;DHT22;22551;52.206;4.856;2024-02-23T17:25:45;7.20;99.90
36548;DHT22;22551;52.206;4.856;2024-02-23T17:30:50;7.20;99.90
36548;DHT22;22551;52.206;4.856;2024-02-23T17:35:53;7.10;99.90
36548;DHT22;22551;52.206;4.856;2024-02-23T17:40:56;7.00;99.90
36548;DHT22;22551;52.206;4.856;2024-02-23T17:45:58;6.80;99.90
36548;DHT22;22551;52.206;4.856;2024-02-23T17:51:02;6.70;99.90
36548;DHT22;22551;52.206;4.856;2024-02-23T17:56:04;6.60;99.90
36548;DHT22;22551;52.206;4.856;2024-02-23T18:01:08;6.50;99.90
36548;DHT22;22551;52.206;4.856;2024-02-23T18:06:12;6.40;99.90
36548;DHT22;22551;52.206;4.856;2024-02-23T18:11:15;6.20;99.90
36548;DHT22;22551;52.206;4.856;2024-02-23T18:16:17;6.00;99.90
36548;DHT22;22551;52.206;4.856;2024-02-23T18:21:21;6.00;99.90
36548;DHT22;22551;52.206;4.856;2024-02-23T18:26:25;5.80;99.90
36548;DHT22;22551;52.206;4.856;2024-02-23T18:31:27;5.70;99.90
36548;DHT22;22551;52.206;4.856;2024-02-23T18:36:31;5.70;99.90
36548;DHT22;22551;52.206;4.856;2024-02-23T18:41:35;5.70;99.90
36548;DHT22;22551;52.206;4.856;2024-02-23T18:46:37;5.70;99.90
36548;DHT22;22551;52.206;4.856;2024-02-23T18:51:41;5.60;99.90
36548;DHT22;22551;52.206;4.856;2024-02-23T18:56:45;5.70;99.90
36548;DHT22;22551;52.206;4.856;2024-02-23T19:01:48;5.70;99.90
36548;DHT22;22551;52.206;4.856;2024-02-23T19:06:53;5.60;99.90
36548;DHT22;22551;52.206;4.856;2024-02-23T19:12:02;5.70;99.90
36548;DHT22;22551;52.206;4.856;2024-02-23T19:17:08;5.70;99.90
36548;DHT22;22551;52.206;4.856;2024-02-23T19:22:12;5.70;99.90
36548;DHT22;22551;52.206;4.856;2024-02-23T19:27:14;5.70;99.90
36548;DHT22;22551;52.206;4.856;2024-02-23T19:32:16;5.70;99.90
36548;DHT22;22551;52.206;4.856;2024-02-23T19:37:21;5.70;99.90
36548;DHT22;22551;52.206;4.856;2024-02-23T19:42:24;5.80;99.90
36548;DHT22;22551;52.206;4.856;2024-02-23T19:47:27;5.90;99.90
36548;DHT22;22551;52.206;4.856;2024-02-23T19:52:30;5.90;99.90
36548;DHT22;22551;52.206;4.856;2024-02-23T19:57:33;5.90;99.90
36548;DHT22;22551;52.206;4.856;2024-02-23T20:02:35;5.90;99.90
36548;DHT22;22551;52.206;4.856;2024-02-23T20:07:41;5.80;99.90
36548;DHT22;22551;52.206;4.856;2024-02-23T20:12:55;5.80;99.90
36548;DHT22;22551;52.206;4.856;2024-02-23T20:18:00;5.80;99.90
36548;DHT22;22551;52.206;4.856;2024-02-23T20:23:15;5.70;99.90
36548;DHT22;22551;52.206;4.856;2024-02-23T20:28:17;5.60;99.90
36548;DHT22;22551;52.206;4.856;2024-02-23T20:33:20;5.60;99.90
36548;DHT22;22551;52.206;4.856;2024-02-23T20:38:23;5.60;99.90
36548;DHT22;22551;52.206;4.856;2024-02-23T20:43:26;5.50;99.90
36548;DHT22;22551;52.206;4.856;2024-02-23T20:48:28;5.40;99.90
36548;DHT22;22551;52.206;4.856;2024-02-23T20:53:31;5.40;99.90
36548;DHT22;22551;52.206;4.856;2024-02-23T20:58:33;5.40;99.90
36548;DHT22;22551;52.206;4.856;2024-02-23T21:03:36;5.40;99.90
36548;DHT22;22551;52.206;4.856;2024-02-23T21:08:40;5.50;99.90
36548;DHT22;22551;52.206;4.856;2024-02-23T21:13:42;5.50;99.90
36548;DHT22;22551;52.206;4.856;2024-02-23T21:18:44;5.50;99.90
36548;DHT22;22551;52.206;4.856;2024-02-23T21:23:49;5.50;99.90
36548;DHT22;22551;52.206;4.856;2024-02-23T21:28:52;5.50;99.90
36548;DHT22;22551;52.206;4.856;2024-02-23T21:33:54;5.50;99.90
36548;DHT22;22551;52.206;4.856;2024-02-23T21:38:58;5.50;99.90
36548;DHT22;22551;52.206;4.856;2024-02-23T21:44:01;5.50;99.90
36548;DHT22;22551;52.206;4.856;2024-02-23T21:49:06;5.50;99.90
36548;DHT22;22551;52.206;4.856;2024-02-23T21:54:09;5.40;99.90
36548;DHT22;22551;52.206;4.856;2024-02-23T21:59:11;5.40;99.90
36548;DHT22;22551;52.206;4.856;2024-02-23T22:04:13;5.40;99.90
36548;DHT22;22551;52.206;4.856;2024-02-23T22:09:17;5.40;99.90
36548;DHT22;22551;52.206;4.856;2024-02-23T22:14:19;5.40;99.90
36548;DHT22;22551;52.206;4.856;2024-02-23T22:19:21;5.40;99.90
36548;DHT22;22551;52.206;4.856;2024-02-23T22:24:24;5.40;99.90
36548;DHT22;22551;52.206;4.856;2024-02-23T22:29:27;5.40;99.90
36548;DHT22;22551;52.206;4.856;2024-02-23T22:34:29;5.40;99.90
36548;DHT22;22551;52.206;4.856;2024-02-23T22:39:32;5.40;99.90
36548;DHT22;22551;52.206;4.856;2024-02-23T22:44:34;5.40;99.90
36548;DHT22;22551;52.206;4.856;2024-02-23T22:49:37;5.40;99.90
36548;DHT22;22551;52.206;4.856;2024-02-23T22:54:43;5.40;99.90
36548;DHT22;22551;52.206;4.856;2024-02-23T22:59:45;5.40;99.90
36548;DHT22;22551;52.206;4.856;2024-02-23T23:04:47;5.40;99.90
36548;DHT22;22551;52.206;4.856;2024-02-23T23:09:51;5.30;99.90
36548;DHT22;22551;52.206;4.856;2024-02-23T23:14:53;5.20;99.90
36548;DHT22;22551;52.206;4.856;2024-02-23T23:19:55;5.10;99.90
36548;DHT22;22551;52.206;4.856;2024-02-23T23:24:59;5.00;99.90
36548;DHT22;22551;52.206;4.856;2024-02-23T23:30:01;4.90;99.90
36548;DHT22;22551;52.206;4.856;2024-02-23T23:35:03;4.80;99.90
36548;DHT22;22551;52.206;4.856;2024-02-23T23:40:08;4.70;99.90
36548;DHT22;22551;52.206;4.856;2024-02-23T23:45:13;4.70;99.90
36548;DHT22;22551;52.206;4.856;2024-02-23T23:50:15;4.60;99.90
36548;DHT22;22551;52.206;4.856;2024-02-23T23:55:19;4.50;99.90
